sensor_id;sensor_type;location;lat;lon;timestamp;temperature;humidity
44223;DHT22;29895;48.804;9.386;2022-08-18T04:48:38;17.80;99.90
44223;DHT22;29895;48.804;9.386;2022-08-18T04:51:08;17.80;99.90
44223;DHT22;29895;48.804;9.386;2022-08-18T04:53:34;17.80;99.90
44223;DHT22;29895;48.804;9.386;2022-08-18T04:56:12;17.80;99.90
44223;DHT22;29895;48.804;9.386;2022-08-18T04:58:38;17.90;99.90
44223;DHT22;29895;48.804;9.386;2022-08-18T05:01:04;18.00;99.90
44223;DHT22;29895;48.804;9.386;2022-08-18T05:03:29;18.20;99.90
44223;DHT22;29895;48.804;9.386;2022-08-18T05:05:55;18.50;99.90
44223;DHT22;29895;48.804;9.386;2022-08-18T05:08:24;18.70;99.90
44223;DHT22;29895;48.804;9.386;2022-08-18T05:10:57;19.00;99.90
44223;DHT22;29895;48.804;9.386;2022-08-18T05:13:23;19.20;99.90
44223;DHT22;29895;48.804;9.386;2022-08-18T05:15:56;19.30;99.90
44223;DHT22;29895;48.804;9.386;2022-08-18T05:18:22;19.50;99.90
44223;DHT22;29895;48.804;9.386;2022-08-18T05:20:52;19.50;99.90
44223;DHT22;29895;48.804;9.386;2022-08-18T05:23:20;19.50;99.90
44223;DHT22;29895;48.804;9.386;2022-08-18T05:25:46;19.50;99.90
44223;DHT22;29895;48.804;9.386;2022-08-18T05:28:12;19.60;99.90
44223;DHT22;29895;48.804;9.386;2022-08-18T05:30:39;19.80;99.90
44223;DHT22;29895;48.804;9.386;2022-08-18T05:33:05;20.00;99.90
44223;DHT22;29895;48.804;9.386;2022-08-18T05:35:41;20.20;99.90
44223;DHT22;29895;48.804;9.386;2022-08-18T05:40:33;20.30;99.90
44223;DHT22;29895;48.804;9.386;2022-08-18T05:42:59;20.20;99.90
44223;DHT22;29895;48.804;9.386;2022-08-18T05:45:24;20.00;99.90
44223;DHT22;29895;48.804;9.386;2022-08-18T05:47:52;19.90;99.90
44223;DHT22;29895;48.804;9.386;2022-08-18T05:50:21;19.90;99.90
44223;DHT22;29895;48.804;9.386;2022-08-18T05:55:18;20.10;99.90
44223;DHT22;29895;48.804;9.386;2022-08-18T05:58:06;20.40;99.90
44223;DHT22;29895;48.804;9.386;2022-08-18T06:00:33;20.70;99.90
44223;DHT22;29895;48.804;9.386;2022-08-18T06:06:07;21.10;99.90
44223;DHT22;29895;48.804;9.386;2022-08-18T06:08:39;21.10;99.90
44223;DHT22;29895;48.804;9.386;2022-08-18T06:11:07;21.10;99.90
44223;DHT22;29895;48.804;9.386;2022-08-18T06:13:37;21.10;99.90
44223;DHT22;29895;48.804;9.386;2022-08-18T06:18:45;21.20;99.90
44223;DHT22;29895;48.804;9.386;2022-08-18T06:23:45;21.10;99.90
44223;DHT22;29895;48.804;9.386;2022-08-18T06:26:20;21.00;99.90
44223;DHT22;29895;48.804;9.386;2022-08-18T06:31:38;21.20;99.90
44223;DHT22;29895;48.804;9.386;2022-08-18T06:34:13;21.20;99.90
44223;DHT22;29895;48.804;9.386;2022-08-18T06:36:50;21.40;99.90
44223;DHT22;29895;48.804;9.386;2022-08-18T06:41:46;21.60;99.90
44223;DHT22;29895;48.804;9.386;2022-08-18T06:44:17;21.70;99.90
44223;DHT22;29895;48.804;9.386;2022-08-18T06:49:11;22.00;99.90
44223;DHT22;29895;48.804;9.386;2022-08-18T06:51:38;22.10;99.90
44223;DHT22;29895;48.804;9.386;2022-08-18T06:54:23;21.90;99.90
44223;DHT22;29895;48.804;9.386;2022-08-18T06:56:52;21.70;99.90
44223;DHT22;29895;48.804;9.386;2022-08-18T07:01:45;21.70;99.90
44223;DHT22;29895;48.804;9.386;2022-08-18T14:47:47;27.20;98.00
44223;DHT22;29895;48.804;9.386;2022-08-18T14:50:13;27.60;98.10
44223;DHT22;29895;48.804;9.386;2022-08-18T14:52:40;28.00;98.00
44223;DHT22;29895;48.804;9.386;2022-08-18T14:55:06;28.30;97.90
44223;DHT22;29895;48.804;9.386;2022-08-18T14:57:33;28.40;97.10
44223;DHT22;29895;48.804;9.386;2022-08-18T15:00:00;28.40;97.30
44223;DHT22;29895;48.804;9.386;2022-08-18T15:02:26;28.20;97.70
44223;DHT22;29895;48.804;9.386;2022-08-18T15:04:51;28.10;97.30
44223;DHT22;29895;48.804;9.386;2022-08-18T15:07:17;28.00;97.40
44223;DHT22;29895;48.804;9.386;2022-08-18T15:09:43;27.60;97.60
44223;DHT22;29895;48.804;9.386;2022-08-18T15:12:09;27.40;97.90
44223;DHT22;29895;48.804;9.386;2022-08-18T15:14:35;27.30;98.40
44223;DHT22;29895;48.804;9.386;2022-08-18T15:17:04;27.10;98.00
44223;DHT22;29895;48.804;9.386;2022-08-18T15:19:31;26.80;98.30
44223;DHT22;29895;48.804;9.386;2022-08-18T15:21:56;26.80;98.30
44223;DHT22;29895;48.804;9.386;2022-08-18T15:24:42;26.70;98.50
44223;DHT22;29895;48.804;9.386;2022-08-18T15:27:32;26.70;98.70
44223;DHT22;29895;48.804;9.386;2022-08-18T15:30:00;26.60;98.40
44223;DHT22;29895;48.804;9.386;2022-08-18T15:32:26;26.70;98.40
44223;DHT22;29895;48.804;9.386;2022-08-18T15:34:53;26.70;98.00
44223;DHT22;29895;48.804;9.386;2022-08-18T15:37:19;26.50;98.20
44223;DHT22;29895;48.804;9.386;2022-08-18T15:39:45;26.40;98.30
44223;DHT22;29895;48.804;9.386;2022-08-18T15:42:12;26.40;98.50
44223;DHT22;29895;48.804;9.386;2022-08-18T15:44:38;26.50;98.60
44223;DHT22;29895;48.804;9.386;2022-08-18T15:47:03;26.50;98.50
44223;DHT22;29895;48.804;9.386;2022-08-18T15:49:30;26.70;98.90
44223;DHT22;29895;48.804;9.386;2022-08-18T15:51:57;26.70;98.90
44223;DHT22;29895;48.804;9.386;2022-08-18T15:54:23;26.80;98.60
44223;DHT22;29895;48.804;9.386;2022-08-18T15:56:48;26.80;98.90
44223;DHT22;29895;48.804;9.386;2022-08-18T15:59:14;26.70;98.90
44223;DHT22;29895;48.804;9.386;2022-08-18T16:01:39;26.80;98.90
44223;DHT22;29895;48.804;9.386;2022-08-18T16:04:05;26.80;98.80
44223;DHT22;29895;48.804;9.386;2022-08-18T16:06:33;26.80;98.70
44223;DHT22;29895;48.804;9.386;2022-08-18T16:09:01;26.70;98.60
44223;DHT22;29895;48.804;9.386;2022-08-18T16:11:29;26.70;98.80
44223;DHT22;29895;48.804;9.386;2022-08-18T16:13:56;26.70;98.90
44223;DHT22;29895;48.804;9.386;2022-08-18T16:16:25;26.80;98.90
44223;DHT22;29895;48.804;9.386;2022-08-18T16:18:51;26.80;98.70
44223;DHT22;29895;48.804;9.386;2022-08-18T16:21:18;26.70;98.70
44223;DHT22;29895;48.804;9.386;2022-08-18T16:23:47;26.70;98.80
44223;DHT22;29895;48.804;9.386;2022-08-18T16:26:13;26.70;98.80
44223;DHT22;29895;48.804;9.386;2022-08-18T16:28:40;26.70;98.70
44223;DHT22;29895;48.804;9.386;2022-08-18T16:31:08;26.70;98.60
44223;DHT22;29895;48.804;9.386;2022-08-18T16:33:35;26.60;98.80
44223;DHT22;29895;48.804;9.386;2022-08-18T16:36:05;26.50;98.90
44223;DHT22;29895;48.804;9.386;2022-08-18T16:38:32;26.40;99.00
44223;DHT22;29895;48.804;9.386;2022-08-18T16:41:05;26.30;98.90
44223;DHT22;29895;48.804;9.386;2022-08-18T16:43:31;26.30;99.00
44223;DHT22;29895;48.804;9.386;2022-08-18T16:45:57;26.30;98.90
44223;DHT22;29895;48.804;9.386;2022-08-18T16:48:22;26.30;98.80
44223;DHT22;29895;48.804;9.386;2022-08-18T16:50:48;26.40;98.90
44223;DHT22;29895;48.804;9.386;2022-08-18T16:53:15;26.40;98.80
44223;DHT22;29895;48.804;9.386;2022-08-18T16:55:42;26.40;98.80
44223;DHT22;29895;48.804;9.386;2022-08-18T16:58:07;26.30;98.70
44223;DHT22;29895;48.804;9.386;2022-08-18T17:00:53;26.20;98.90
44223;DHT22;29895;48.804;9.386;2022-08-18T17:03:37;26.10;98.90
44223;DHT22;29895;48.804;9.386;2022-08-18T17:06:21;26.10;98.90
44223;DHT22;29895;48.804;9.386;2022-08-18T17:08:48;26.10;99.00
44223;DHT22;29895;48.804;9.386;2022-08-18T17:11:16;26.00;98.90
44223;DHT22;29895;48.804;9.386;2022-08-18T17:13:43;26.00;99.00
44223;DHT22;29895;48.804;9.386;2022-08-18T17:16:09;26.00;99.00
44223;DHT22;29895;48.804;9.386;2022-08-18T17:18:35;26.00;99.10
44223;DHT22;29895;48.804;9.386;2022-08-18T17:21:02;26.00;99.20
44223;DHT22;29895;48.804;9.386;2022-08-18T17:23:28;25.80;99.20
44223;DHT22;29895;48.804;9.386;2022-08-18T17:25:54;25.80;99.30
44223;DHT22;29895;48.804;9.386;2022-08-18T17:28:20;25.80;99.30
44223;DHT22;29895;48.804;9.386;2022-08-18T17:30:46;25.70;99.40
44223;DHT22;29895;48.804;9.386;2022-08-18T17:33:18;25.70;99.90
44223;DHT22;29895;48.804;9.386;2022-08-18T17:35:48;25.60;99.90
44223;DHT22;29895;48.804;9.386;2022-08-18T17:40:45;25.50;99.90
44223;DHT22;29895;48.804;9.386;2022-08-18T17:43:17;25.30;99.90
44223;DHT22;29895;48.804;9.386;2022-08-18T17:45:48;25.30;99.90
44223;DHT22;29895;48.804;9.386;2022-08-18T17:48:27;25.20;99.90
44223;DHT22;29895;48.804;9.386;2022-08-18T17:51:00;25.10;99.90
44223;DHT22;29895;48.804;9.386;2022-08-18T17:53:44;25.00;99.90
44223;DHT22;29895;48.804;9.386;2022-08-18T17:56:21;24.90;99.90
44223;DHT22;29895;48.804;9.386;2022-08-18T17:59:01;24.80;99.90
44223;DHT22;29895;48.804;9.386;2022-08-18T18:01:31;24.80;99.90
44223;DHT22;29895;48.804;9.386;2022-08-18T18:04:00;24.70;99.90
44223;DHT22;29895;48.804;9.386;2022-08-18T18:06:35;24.60;99.90
44223;DHT22;29895;48.804;9.386;2022-08-18T18:11:34;24.50;99.90
44223;DHT22;29895;48.804;9.386;2022-08-18T18:14:22;24.40;99.90
44223;DHT22;29895;48.804;9.386;2022-08-18T18:17:06;24.30;99.90
44223;DHT22;29895;48.804;9.386;2022-08-18T18:19:32;24.20;99.90
44223;DHT22;29895;48.804;9.386;2022-08-18T18:22:08;24.20;99.90
44223;DHT22;29895;48.804;9.386;2022-08-18T18:24:37;24.20;99.90
44223;DHT22;29895;48.804;9.386;2022-08-18T18:29:52;24.00;99.90
44223;DHT22;29895;48.804;9.386;2022-08-18T18:34:44;24.00;99.90
44223;DHT22;29895;48.804;9.386;2022-08-18T18:37:26;24.00;99.90
44223;DHT22;29895;48.804;9.386;2022-08-18T18:39:59;23.90;99.90
44223;DHT22;29895;48.804;9.386;2022-08-18T18:42:26;23.90;99.90
44223;DHT22;29895;48.804;9.386;2022-08-18T18:44:54;23.80;99.90
44223;DHT22;29895;48.804;9.386;2022-08-18T18:49:53;23.80;99.90
44223;DHT22;29895;48.804;9.386;2022-08-18T18:54:59;23.70;99.90
44223;DHT22;29895;48.804;9.386;2022-08-18T19:00:11;23.70;99.90
44223;DHT22;29895;48.804;9.386;2022-08-18T19:02:45;23.60;99.90
44223;DHT22;29895;48.804;9.386;2022-08-18T19:10:16;23.60;99.90
